Terminal Aerodrome Forecast
Issued by NWS Louisville, KY

Home | Current Version | Previous Version | Text Only | Print | Product List | Glossary On
Versions: 1 2 3 4 5 6 7 8 9 10 11 12 13 14 15 16 17 18
857
FTUS43 KLMK 302320
TAFBWG
TAF
KBWG 302320Z 0100/0124 17007KT P6SM -RA BKN100
     FM010200 18006KT P6SM -SHRA VCTS BKN040CB
     FM010600 19006KT P6SM BKN100
     FM011500 23007KT P6SM BKN035 PROB30 0119/0123 5SM TSRA
      BKN030CB=

USA.gov is the U.S. government's official web portal to all federal, state and local government web resources and services.